Portada
METAR-TAF:

METAR-TAF

Aeropuertos :

Brenner Field

Falls City, Nebraska, Estados Unidos

latitud: 40-04-44N, longitud: 095-35-31W, altitud: 300 m

Observación

El informe se hizo hace 45 minutos, a las 14:53 UTC
Viento 10 kt del sur-sureste
Temperatura 14°C
Humedad 67%
Presión 1013 hPa
Visibilidad: 16.1 km
Cielo despejado

METAR: KFNB 011453Z AUTO 16010KT 10SM CLR 14/08 A2992 RMK AO2 SLP131 T01440083 50004

Hora: 10:38 (15:38 UTC)


TAF: falta

Observaciones y pronósticos meteorológicos de más de 4000 aeropuertos (mensajes METAR y TAF).

Los puntos amarillos y rojos representan las estaciones disponibles.

Ponga el ratón en el punto deseado para ver el nombre de la estación.

Haga clic para ver las observaciones y los pronósticos meteorológicos.

Para cambiar el mapa : haga clic en los botones verdes con una cruz de color negro para hacer un zoom, en el botón verde con un guión para alejar o en las flechas verdes para mapas adyacentes.


METAR-TAF: